Time;durP1;ratioP1;P1;durP2;ratioP2;P2;SDS_P1;SDS_P2;PMS_P1;PMS_P2;Temp;Humidity;BMP_temperature;BMP_pressure;BME280_temperature;BME280_humidity;BME280_pressure;Samples;Min_cycle;Max_cycle;Signal;HPM_P1;HPM_P2
2022/12/12 00:02:12;;;;;;;35.65;19.25;;;0.80;99.90;;;;;;5050733;28;20143;-45
2022/12/12 00:04:39;;;;;;;35.00;18.80;;;0.90;99.90;;;;;;5048266;28;20115;-44
2022/12/12 00:07:06;;;;;;;34.10;19.45;;;0.80;99.90;;;;;;5049850;28;20044;-44
2022/12/12 00:09:32;;;;;;;37.00;19.75;;;0.80;99.90;;;;;;5051065;28;20049;-44
2022/12/12 00:11:59;;;;;;;37.15;19.70;;;0.80;99.90;;;;;;5049700;28;20041;-45
2022/12/12 00:14:28;;;;;;;37.63;20.35;;;0.80;99.90;;;;;;5040811;28;20054;-44
2022/12/12 00:16:54;;;;;;;36.58;19.35;;;0.90;99.90;;;;;;5049255;28;20056;-44
2022/12/12 00:19:21;;;;;;;38.20;19.33;;;0.90;99.90;;;;;;5050416;28;20546;-44
2022/12/12 00:21:48;;;;;;;32.92;18.45;;;0.90;99.90;;;;;;5047021;28;20045;-42
2022/12/12 00:24:15;;;;;;;34.42;18.80;;;0.90;99.90;;;;;;5049328;28;20385;-45
2022/12/12 00:26:42;;;;;;;34.08;19.25;;;0.90;99.90;;;;;;5050496;28;20048;-46
2022/12/12 00:29:10;;;;;;;35.45;18.80;;;0.80;99.90;;;;;;5050117;28;20049;-45
2022/12/12 00:31:38;;;;;;;36.70;18.95;;;0.90;99.90;;;;;;5050780;28;20057;-43
2022/12/12 00:34:05;;;;;;;35.03;18.95;;;0.90;99.90;;;;;;5050626;28;20440;-45
2022/12/12 00:36:32;;;;;;;34.70;18.65;;;0.90;99.90;;;;;;5050488;28;20061;-38
2022/12/12 00:38:59;;;;;;;38.25;18.52;;;0.90;99.90;;;;;;5051026;28;20053;-42
2022/12/12 00:41:26;;;;;;;33.58;18.85;;;0.90;99.90;;;;;;5048833;28;20455;-43
2022/12/12 00:43:53;;;;;;;36.80;18.98;;;0.80;99.90;;;;;;5048848;28;20489;-44
2022/12/12 00:46:21;;;;;;;33.15;18.55;;;0.80;99.90;;;;;;5050515;28;20045;-44
2022/12/12 00:48:49;;;;;;;38.13;19.98;;;0.90;99.90;;;;;;5049756;28;20110;-44
2022/12/12 00:51:17;;;;;;;32.05;17.65;;;0.90;99.90;;;;;;5049729;28;20048;-41
2022/12/12 00:53:44;;;;;;;35.15;18.77;;;0.90;99.90;;;;;;5046357;28;20080;-45
2022/12/12 00:56:10;;;;;;;38.55;19.33;;;0.80;99.90;;;;;;5052153;28;20052;-45
2022/12/12 00:58:37;;;;;;;32.97;17.98;;;0.80;99.90;;;;;;5054466;28;20098;-46
2022/12/12 01:01:08;;;;;;;34.97;17.98;;;0.90;99.90;;;;;;5054060;28;20201;-45
2022/12/12 01:03:35;;;;;;;34.97;18.50;;;0.90;99.90;;;;;;5055942;28;20440;-43
2022/12/12 01:06:04;;;;;;;34.15;18.33;;;0.90;99.90;;;;;;5052939;28;20090;-45
2022/12/12 01:08:31;;;;;;;31.52;18.17;;;0.90;99.90;;;;;;5054048;28;20048;-46
2022/12/12 01:10:57;;;;;;;33.63;18.33;;;0.80;99.90;;;;;;5052750;28;20523;-45
2022/12/12 01:13:24;;;;;;;30.50;17.40;;;0.90;99.90;;;;;;5053987;28;20064;-46
2022/12/12 01:15:51;;;;;;;33.25;18.15;;;0.80;99.90;;;;;;5055450;28;20095;-44
2022/12/12 01:18:18;;;;;;;31.38;18.60;;;0.80;99.90;;;;;;5054604;28;20053;-45
2022/12/12 01:20:45;;;;;;;33.70;18.88;;;0.80;99.90;;;;;;5055225;28;20563;-44
2022/12/12 01:23:13;;;;;;;33.83;17.15;;;0.80;99.90;;;;;;5055481;28;20140;-44
2022/12/12 01:25:40;;;;;;;34.25;18.23;;;0.80;99.90;;;;;;5053937;28;20053;-44
2022/12/12 01:28:07;;;;;;;32.53;16.75;;;0.80;99.90;;;;;;5054370;28;20103;-43
2022/12/12 01:30:34;;;;;;;33.67;17.48;;;0.80;99.90;;;;;;5034322;28;20053;-46
2022/12/12 01:33:00;;;;;;;31.55;17.15;;;0.80;99.90;;;;;;5049991;28;20053;-44
2022/12/12 01:35:27;;;;;;;33.33;17.77;;;0.80;99.90;;;;;;5054988;28;20049;-43
2022/12/12 01:37:54;;;;;;;35.00;19.25;;;0.90;99.90;;;;;;5052204;28;20049;-43
2022/12/12 01:40:29;;;;;;;31.85;18.00;;;0.80;99.90;;;;;;5052906;28;20049;-43
2022/12/12 01:42:56;;;;;;;30.95;16.67;;;0.80;99.90;;;;;;5049285;28;20049;-43
2022/12/12 01:46:07;;;;;;;33.05;17.55;;;0.80;99.90;;;;;;5052440;28;20044;-43
2022/12/12 01:48:35;;;;;;;32.60;17.83;;;0.90;99.90;;;;;;5036046;28;20560;-46
2022/12/12 01:51:03;;;;;;;33.55;16.70;;;0.80;99.90;;;;;;5051982;28;20045;-43
2022/12/12 01:53:30;;;;;;;30.85;17.60;;;0.90;99.90;;;;;;5053133;28;20044;-38
2022/12/12 01:55:58;;;;;;;30.25;17.02;;;0.80;99.90;;;;;;5052670;28;20064;-43
2022/12/12 01:58:25;;;;;;;28.40;15.95;;;0.80;99.90;;;;;;5052082;28;20057;-41
2022/12/12 02:00:51;;;;;;;26.23;16.38;;;0.80;99.90;;;;;;5051524;28;20045;-45
2022/12/12 02:03:18;;;;;;;31.67;16.30;;;0.90;99.90;;;;;;5052780;28;20049;-45
2022/12/12 02:05:48;;;;;;;30.27;17.25;;;0.80;99.90;;;;;;5050122;28;20110;-41
2022/12/12 02:08:15;;;;;;;31.92;17.55;;;0.80;99.90;;;;;;5050436;28;20056;-43
2022/12/12 02:10:43;;;;;;;32.17;17.35;;;0.80;99.90;;;;;;5054184;28;20049;-48
2022/12/12 02:13:13;;;;;;;27.45;15.43;;;0.80;99.90;;;;;;5051558;28;20481;-46
2022/12/12 02:15:44;;;;;;;33.33;18.17;;;0.80;99.90;;;;;;5051069;28;20053;-44
2022/12/12 02:18:11;;;;;;;30.83;15.98;;;0.80;99.90;;;;;;5052327;28;20053;-46
2022/12/12 02:20:50;;;;;;;31.45;17.23;;;0.80;99.90;;;;;;5052685;28;20908;-45
2022/12/12 02:24:09;;;;;;;30.48;17.00;;;0.80;99.90;;;;;;5052255;28;20057;-45
2022/12/12 02:27:00;;;;;;;30.17;16.83;;;0.80;99.90;;;;;;5041826;28;20045;-43
2022/12/12 02:30:04;;;;;;;31.15;17.17;;;0.80;99.90;;;;;;5051851;28;20045;-44
2022/12/12 02:32:38;;;;;;;31.58;17.00;;;0.80;99.90;;;;;;5050510;28;20114;-45
2022/12/12 02:35:08;;;;;;;32.20;17.60;;;0.70;99.90;;;;;;5050412;28;20056;-47
2022/12/12 02:37:38;;;;;;;27.55;15.80;;;0.70;99.90;;;;;;5049660;28;20060;-43
2022/12/12 02:40:10;;;;;;;28.40;17.15;;;0.70;99.90;;;;;;5052370;28;20118;-44
2022/12/12 02:42:38;;;;;;;;;;;0.70;99.90;;;;;;5052548;28;20107;-43
2022/12/12 02:45:07;;;;;;;29.23;16.50;;;0.70;99.90;;;;;;5050616;28;19974;-42
2022/12/12 02:47:36;;;;;;;28.42;16.15;;;0.70;99.90;;;;;;5051561;28;20472;-44
2022/12/12 02:50:05;;;;;;;29.60;17.30;;;0.80;99.90;;;;;;5053410;28;20079;-45
2022/12/12 02:52:32;;;;;;;28.33;15.85;;;0.80;99.90;;;;;;5050125;28;20048;-43
2022/12/12 02:54:59;;;;;;;29.42;17.15;;;0.80;99.90;;;;;;5049973;28;20052;-46
2022/12/12 02:57:26;;;;;;;31.42;17.42;;;0.90;99.90;;;;;;5050902;28;20106;-44
2022/12/12 02:59:55;;;;;;;27.98;16.08;;;0.80;99.90;;;;;;5050244;28;20128;-44
2022/12/12 03:02:44;;;;;;;30.50;17.00;;;0.80;99.90;;;;;;5050770;28;20049;-43
2022/12/12 03:08:16;;;;;;;25.23;16.33;;;0.80;99.90;;;;;;5049317;28;20100;-43
2022/12/12 03:10:49;;;;;;;30.63;17.65;;;0.80;99.90;;;;;;5063613;28;20056;-40
2022/12/12 03:13:22;;;;;;;31.85;17.20;;;0.80;99.90;;;;;;5047769;28;20045;-44
2022/12/12 03:15:52;;;;;;;34.80;17.42;;;0.80;99.90;;;;;;5045193;28;20095;-45
2022/12/12 03:18:22;;;;;;;30.38;17.17;;;0.80;99.90;;;;;;5050938;28;20071;-46
2022/12/12 03:20:52;;;;;;;29.17;16.80;;;0.80;99.90;;;;;;5049420;28;20049;-42
2022/12/12 03:23:22;;;;;;;30.27;17.55;;;0.80;99.90;;;;;;5050426;28;20048;-42
2022/12/12 03:25:51;;;;;;;30.10;16.67;;;0.80;99.90;;;;;;5052104;28;20053;-43
2022/12/12 03:28:22;;;;;;;30.92;16.95;;;0.80;99.90;;;;;;5049825;28;20099;-43
2022/12/12 03:30:50;;;;;;;30.77;16.73;;;0.80;99.90;;;;;;5050480;28;20077;-43
2022/12/12 03:33:18;;;;;;;30.90;16.33;;;0.80;99.90;;;;;;5051136;28;20114;-43
2022/12/12 03:35:47;;;;;;;32.35;17.00;;;0.80;99.90;;;;;;5051320;28;20045;-44
2022/12/12 03:38:18;;;;;;;30.00;16.85;;;0.80;99.90;;;;;;5050264;28;20386;-46
2022/12/12 03:40:47;;;;;;;31.08;17.67;;;0.70;99.90;;;;;;5051194;28;20079;-45
2022/12/12 03:43:15;;;;;;;30.48;17.52;;;0.80;99.90;;;;;;5050066;28;20068;-46
2022/12/12 03:45:45;;;;;;;29.08;16.60;;;0.80;99.90;;;;;;5051699;28;20143;-47
2022/12/12 03:48:13;;;;;;;30.45;16.50;;;0.80;99.90;;;;;;5048189;28;20478;-43
2022/12/12 03:50:44;;;;;;;33.95;18.15;;;0.80;99.90;;;;;;5051277;28;20048;-44
2022/12/12 03:53:12;;;;;;;29.65;17.00;;;0.80;99.90;;;;;;5050590;28;20072;-45
2022/12/12 03:55:43;;;;;;;31.27;17.45;;;0.80;99.90;;;;;;5049901;28;20087;-44
2022/12/12 03:58:11;;;;;;;31.17;18.17;;;0.80;99.90;;;;;;5047182;28;20056;-45
2022/12/12 04:00:38;;;;;;;34.22;18.48;;;0.80;99.90;;;;;;5052812;28;20102;-45
2022/12/12 04:03:08;;;;;;;30.23;16.83;;;0.80;99.90;;;;;;5051178;28;20558;-45
2022/12/12 04:05:37;;;;;;;31.15;17.10;;;0.80;99.90;;;;;;5049583;28;20061;-39
2022/12/12 04:08:06;;;;;;;30.13;17.25;;;0.90;99.90;;;;;;5047943;28;20443;-47
2022/12/12 04:13:35;;;;;;;31.17;17.92;;;0.80;99.90;;;;;;4987878;28;20139;-45
2022/12/12 04:16:03;;;;;;;28.83;16.10;;;0.80;99.90;;;;;;5038538;28;20062;-45
2022/12/12 04:18:36;;;;;;;31.70;16.83;;;0.80;99.90;;;;;;5049318;28;20404;-44
2022/12/12 04:23:56;;;;;;;30.77;17.45;;;0.90;99.90;;;;;;5049939;28;20132;-44
2022/12/12 04:29:17;;;;;;;34.22;18.05;;;0.80;99.90;;;;;;5049655;28;20138;-46
2022/12/12 04:31:47;;;;;;;31.52;17.85;;;0.80;99.90;;;;;;5053831;28;20094;-45
2022/12/12 04:34:15;;;;;;;33.13;17.98;;;0.80;99.90;;;;;;5054185;28;20049;-48
2022/12/12 04:36:42;;;;;;;30.80;17.42;;;0.80;99.90;;;;;;5054731;28;20049;-45
2022/12/12 04:39:09;;;;;;;30.95;17.08;;;0.90;99.90;;;;;;5049931;28;20053;-40
2022/12/12 04:41:36;;;;;;;30.45;18.30;;;0.80;99.90;;;;;;5055405;28;20061;-45
2022/12/12 04:44:03;;;;;;;32.53;18.63;;;0.90;99.90;;;;;;5053087;28;20116;-38
2022/12/12 04:46:32;;;;;;;32.00;17.60;;;0.90;99.90;;;;;;5040808;28;20106;-41
2022/12/12 04:49:00;;;;;;;32.35;18.65;;;0.90;99.90;;;;;;5052899;28;20056;-47
2022/12/12 04:51:28;;;;;;;31.65;17.98;;;0.90;99.90;;;;;;5055541;28;20083;-43
2022/12/12 04:53:57;;;;;;;30.27;17.23;;;1.00;99.90;;;;;;5054693;28;20056;-43
2022/12/12 04:56:26;;;;;;;32.63;17.70;;;0.90;99.90;;;;;;5053055;28;20110;-38
2022/12/12 04:58:53;;;;;;;31.88;17.65;;;0.90;99.90;;;;;;5053099;28;20044;-43
2022/12/12 05:01:22;;;;;;;29.40;17.90;;;0.90;99.90;;;;;;5052659;28;20060;-44
2022/12/12 05:03:53;;;;;;;29.27;17.08;;;0.90;99.90;;;;;;5053791;28;20056;-44
2022/12/12 05:06:21;;;;;;;31.83;17.27;;;0.90;99.90;;;;;;5051495;28;20057;-44
2022/12/12 05:08:49;;;;;;;29.08;17.30;;;1.00;99.90;;;;;;5053002;28;20440;-45
2022/12/12 05:11:17;;;;;;;31.92;18.48;;;0.90;99.90;;;;;;5050716;28;20508;-44
2022/12/12 05:13:44;;;;;;;31.30;18.08;;;0.90;99.90;;;;;;5051385;28;20078;-41
2022/12/12 05:16:17;;;;;;;32.60;17.23;;;0.90;99.90;;;;;;5052501;28;20060;-46
2022/12/12 05:18:44;;;;;;;30.95;17.42;;;0.90;99.90;;;;;;5050931;28;20049;-43
2022/12/12 05:21:12;;;;;;;27.90;15.98;;;0.90;99.90;;;;;;5051438;28;20053;-45
2022/12/12 05:23:39;;;;;;;28.83;17.02;;;0.90;99.90;;;;;;5054323;28;20493;-42
2022/12/12 05:26:07;;;;;;;30.95;17.80;;;0.90;99.90;;;;;;5052880;28;20574;-38
2022/12/12 05:28:34;;;;;;;34.65;19.27;;;0.90;99.90;;;;;;5036630;28;20048;-42
2022/12/12 05:31:04;;;;;;;30.98;17.45;;;1.00;99.90;;;;;;5050918;28;20551;-42
2022/12/12 05:33:31;;;;;;;33.85;19.25;;;0.90;99.90;;;;;;5050139;28;20112;-38
2022/12/12 05:35:57;;;;;;;31.13;17.67;;;0.90;99.90;;;;;;5047561;28;20102;-42
2022/12/12 05:38:26;;;;;;;28.00;16.38;;;0.90;99.90;;;;;;5050277;28;20049;-43
2022/12/12 05:40:52;;;;;;;34.90;19.33;;;0.80;99.90;;;;;;5048123;28;20049;-37
2022/12/12 05:43:19;;;;;;;31.92;18.00;;;0.90;99.90;;;;;;5046412;28;20054;-41
2022/12/12 05:45:46;;;;;;;33.67;18.80;;;1.00;99.90;;;;;;5044231;28;20045;-39
2022/12/12 05:48:13;;;;;;;31.48;17.58;;;0.90;99.90;;;;;;5048795;28;20045;-40
2022/12/12 05:50:40;;;;;;;29.15;16.70;;;0.90;99.90;;;;;;5051764;28;20451;-41
2022/12/12 05:53:07;;;;;;;31.50;17.63;;;0.90;99.90;;;;;;5052995;28;20094;-43
2022/12/12 05:55:35;;;;;;;30.35;16.90;;;0.90;99.90;;;;;;5077533;28;20099;-43
2022/12/12 05:58:02;;;;;;;34.13;17.63;;;0.90;99.90;;;;;;5052114;28;20391;-43
2022/12/12 06:00:29;;;;;;;32.30;18.23;;;0.90;99.90;;;;;;5048820;28;20099;-38
2022/12/12 06:02:55;;;;;;;31.27;17.98;;;0.90;99.90;;;;;;5050645;28;20048;-44
2022/12/12 06:05:22;;;;;;;31.40;18.45;;;0.90;99.90;;;;;;5051976;28;20049;-43
2022/12/12 06:07:49;;;;;;;33.22;18.58;;;0.90;99.90;;;;;;5042744;28;20045;-36
2022/12/12 06:10:16;;;;;;;32.85;19.42;;;0.90;99.90;;;;;;5046767;28;20796;-41
2022/12/12 06:12:44;;;;;;;32.78;18.75;;;0.90;99.90;;;;;;5047710;28;20068;-38
2022/12/12 06:15:11;;;;;;;32.25;17.77;;;0.90;99.90;;;;;;5048477;28;20048;-43
2022/12/12 06:17:38;;;;;;;31.10;18.23;;;0.80;99.90;;;;;;5050635;28;20045;-43
2022/12/12 06:20:06;;;;;;;31.98;18.02;;;0.80;99.90;;;;;;5050607;28;20077;-38
2022/12/12 06:22:34;;;;;;;31.65;17.90;;;0.80;99.90;;;;;;5049360;28;20045;-43
2022/12/12 06:25:01;;;;;;;29.77;17.58;;;0.80;99.90;;;;;;5050232;28;20045;-43
2022/12/12 06:27:28;;;;;;;33.45;18.90;;;0.80;99.90;;;;;;5049704;28;20053;-42
2022/12/12 06:29:56;;;;;;;31.98;18.15;;;0.80;99.90;;;;;;5048055;28;20053;-39
2022/12/12 06:32:23;;;;;;;31.80;18.35;;;0.80;99.90;;;;;;5049409;28;20049;-43
2022/12/12 06:34:50;;;;;;;31.55;18.83;;;0.80;99.90;;;;;;5052293;28;20381;-38
2022/12/12 06:37:17;;;;;;;35.58;18.75;;;0.80;99.90;;;;;;5048291;28;20104;-44
2022/12/12 06:39:44;;;;;;;32.47;17.70;;;0.80;99.90;;;;;;5048734;28;20452;-40
2022/12/12 06:42:10;;;;;;;32.90;18.50;;;0.80;99.90;;;;;;5048466;28;20051;-44
2022/12/12 06:44:37;;;;;;;34.10;19.08;;;0.80;99.90;;;;;;5047827;28;20102;-42
2022/12/12 06:47:05;;;;;;;36.95;19.52;;;0.80;99.90;;;;;;5048945;28;20095;-41
2022/12/12 06:49:32;;;;;;;30.55;18.25;;;0.80;99.90;;;;;;5045958;28;20044;-38
2022/12/12 06:51:59;;;;;;;31.98;18.05;;;0.80;99.90;;;;;;5051981;28;20114;-37
2022/12/12 06:54:26;;;;;;;32.03;17.65;;;0.80;99.90;;;;;;5052421;28;20102;-42
2022/12/12 06:56:53;;;;;;;34.03;18.35;;;0.80;99.90;;;;;;5048024;28;20386;-47
2022/12/12 06:59:20;;;;;;;29.13;16.42;;;0.80;99.90;;;;;;5048449;28;20056;-43
2022/12/12 07:01:50;;;;;;;32.25;19.05;;;0.80;99.90;;;;;;5047473;28;20041;-43
2022/12/12 07:04:18;;;;;;;30.75;18.08;;;0.80;99.90;;;;;;5051894;28;20421;-44
2022/12/12 07:06:45;;;;;;;30.38;17.25;;;0.70;99.90;;;;;;5045471;28;20049;-44
2022/12/12 07:09:11;;;;;;;30.08;18.05;;;0.80;99.90;;;;;;5045070;28;20053;-45
2022/12/12 07:11:39;;;;;;;28.80;17.83;;;0.70;99.90;;;;;;5048019;28;20052;-45
2022/12/12 07:14:06;;;;;;;26.80;16.60;;;0.70;99.90;;;;;;5050454;28;20048;-44
2022/12/12 07:16:33;;;;;;;33.15;18.65;;;0.80;99.90;;;;;;5050365;28;20152;-44
2022/12/12 07:19:00;;;;;;;31.88;18.25;;;0.70;99.90;;;;;;5047310;28;20045;-45
2022/12/12 07:21:28;;;;;;;32.22;18.33;;;0.70;99.90;;;;;;5045970;28;20049;-44
2022/12/12 07:23:56;;;;;;;34.40;18.75;;;0.70;99.90;;;;;;5043239;28;20053;-43
2022/12/12 07:26:23;;;;;;;32.00;17.88;;;0.70;99.90;;;;;;5049174;28;20056;-45
2022/12/12 07:28:50;;;;;;;31.92;18.65;;;0.70;99.90;;;;;;5047614;28;20057;-41
2022/12/12 07:31:21;;;;;;;29.25;17.98;;;0.70;99.90;;;;;;5048131;28;20418;-43
2022/12/12 07:33:47;;;;;;;29.77;17.55;;;0.70;99.90;;;;;;5039880;28;20126;-41
2022/12/12 07:36:15;;;;;;;33.60;18.60;;;0.70;99.90;;;;;;5046199;28;20122;-45
2022/12/12 07:38:43;;;;;;;29.77;17.48;;;0.70;99.90;;;;;;5053253;28;20048;-44
2022/12/12 07:41:11;;;;;;;29.27;16.73;;;0.70;99.90;;;;;;5057055;28;20409;-42
2022/12/12 07:43:38;;;;;;;31.92;18.30;;;0.70;99.90;;;;;;5053464;28;20045;-39
2022/12/12 07:46:06;;;;;;;30.33;17.80;;;0.70;99.90;;;;;;5057845;28;20565;-40
2022/12/12 07:48:33;;;;;;;30.85;18.20;;;0.70;99.90;;;;;;5054928;28;20109;-43
2022/12/12 07:50:59;;;;;;;29.27;17.65;;;0.70;99.90;;;;;;5052723;28;20562;-44
2022/12/12 07:53:26;;;;;;;31.83;17.83;;;0.70;99.90;;;;;;5048601;28;20504;-44
2022/12/12 07:55:55;;;;;;;29.67;17.30;;;0.70;99.90;;;;;;5044515;28;20107;-41
2022/12/12 07:58:22;;;;;;;31.83;17.40;;;0.80;99.90;;;;;;5049072;28;20071;-39
2022/12/12 08:00:49;;;;;;;32.33;18.60;;;0.70;99.90;;;;;;5046504;28;20045;-38
2022/12/12 08:03:16;;;;;;;28.02;17.08;;;0.70;99.90;;;;;;5047452;28;20049;-42
2022/12/12 08:05:42;;;;;;;28.15;17.73;;;0.70;99.90;;;;;;5046319;28;20114;-40
2022/12/12 08:08:09;;;;;;;30.08;17.55;;;0.70;99.90;;;;;;5045481;28;20095;-45
2022/12/12 08:10:38;;;;;;;30.52;17.85;;;0.80;99.90;;;;;;5049374;28;20140;-42
2022/12/12 08:13:06;;;;;;;31.67;18.70;;;0.80;99.90;;;;;;5048280;28;20519;-41
2022/12/12 08:15:33;;;;;;;29.20;17.88;;;0.80;99.90;;;;;;5048913;28;20114;-42
2022/12/12 08:18:00;;;;;;;33.22;17.77;;;0.80;99.90;;;;;;5048412;28;20492;-38
2022/12/12 08:20:27;;;;;;;32.03;18.38;;;0.80;99.90;;;;;;5051312;28;20044;-42
2022/12/12 08:22:54;;;;;;;29.83;17.75;;;0.80;99.90;;;;;;5049859;28;20423;-43
2022/12/12 08:25:23;;;;;;;32.40;18.27;;;0.80;99.90;;;;;;5049709;28;20049;-44
2022/12/12 08:27:50;;;;;;;34.90;18.38;;;0.80;99.90;;;;;;5045600;28;20106;-39
2022/12/12 08:30:19;;;;;;;31.23;17.23;;;0.80;99.90;;;;;;5034239;28;20107;-43
2022/12/12 08:32:46;;;;;;;31.45;18.25;;;0.80;99.90;;;;;;5030350;28;20464;-39
2022/12/12 08:35:13;;;;;;;32.33;18.88;;;0.80;99.90;;;;;;5048170;28;20053;-39
2022/12/12 08:37:40;;;;;;;33.30;18.55;;;0.90;99.90;;;;;;5049467;28;20555;-43
2022/12/12 08:40:07;;;;;;;30.83;18.63;;;0.90;99.90;;;;;;5051781;28;20056;-41
2022/12/12 08:42:34;;;;;;;33.03;19.20;;;0.90;99.90;;;;;;5050824;28;20045;-43
2022/12/12 08:45:01;;;;;;;29.70;19.02;;;0.90;99.90;;;;;;5050841;28;20485;-42
2022/12/12 08:47:29;;;;;;;33.40;18.98;;;0.90;99.90;;;;;;5050827;28;20052;-41
2022/12/12 08:49:56;;;;;;;30.38;18.05;;;0.90;99.90;;;;;;5047623;28;20464;-43
2022/12/12 08:52:23;;;;;;;32.92;19.10;;;0.90;99.90;;;;;;5046205;28;20061;-41
2022/12/12 08:54:50;;;;;;;32.17;17.77;;;0.90;99.90;;;;;;5048817;28;20056;-40
2022/12/12 08:57:17;;;;;;;31.90;18.30;;;1.00;99.90;;;;;;5050207;28;20575;-41
2022/12/12 08:59:44;;;;;;;30.10;17.58;;;1.00;99.90;;;;;;5050356;28;20069;-42
2022/12/12 09:02:12;;;;;;;32.92;18.63;;;1.00;99.90;;;;;;5046893;28;20056;-43
2022/12/12 09:04:40;;;;;;;31.33;17.40;;;1.00;99.90;;;;;;5040360;28;20053;-42
2022/12/12 09:07:07;;;;;;;31.80;17.90;;;1.00;99.90;;;;;;5045990;28;20091;-39
2022/12/12 09:09:34;;;;;;;30.88;18.10;;;1.00;99.90;;;;;;5047529;28;20044;-43
2022/12/12 09:12:04;;;;;;;33.90;19.58;;;1.10;99.90;;;;;;5046581;28;20064;-39
2022/12/12 09:14:34;;;;;;;32.53;18.60;;;1.10;99.90;;;;;;5050040;28;20045;-41
2022/12/12 09:17:01;;;;;;;30.35;18.13;;;1.10;99.90;;;;;;5050784;28;20060;-43
2022/12/12 09:19:27;;;;;;;30.85;18.23;;;1.10;99.90;;;;;;5049878;28;20095;-42
2022/12/12 09:21:56;;;;;;;31.15;17.58;;;1.20;99.90;;;;;;5047579;28;20064;-41
2022/12/12 09:24:24;;;;;;;31.25;17.90;;;1.10;99.90;;;;;;5050336;28;20053;-41
2022/12/12 09:26:51;;;;;;;31.27;17.88;;;1.30;99.90;;;;;;5047614;28;20493;-40
2022/12/12 09:29:18;;;;;;;31.63;18.02;;;1.20;99.90;;;;;;5050192;28;20049;-42
2022/12/12 09:31:44;;;;;;;30.60;18.20;;;1.20;99.90;;;;;;5049140;28;20057;-41
2022/12/12 09:34:11;;;;;;;28.75;17.58;;;1.30;99.90;;;;;;5049329;28;20107;-43
2022/12/12 09:36:38;;;;;;;29.20;17.83;;;1.30;99.90;;;;;;5052393;28;20455;-43
2022/12/12 09:39:06;;;;;;;29.73;17.55;;;1.30;99.90;;;;;;5051902;28;20045;-43
2022/12/12 09:41:33;;;;;;;30.65;18.02;;;1.30;99.90;;;;;;5050649;28;20061;-36
2022/12/12 09:44:01;;;;;;;28.83;17.17;;;1.30;99.90;;;;;;5048705;28;20069;-43
2022/12/12 09:46:32;;;;;;;31.60;18.17;;;1.30;99.90;;;;;;5053311;28;20626;-43
2022/12/12 09:49:07;;;;;;;31.08;18.17;;;1.40;99.90;;;;;;5044402;28;20123;-42
2022/12/12 09:51:35;;;;;;;29.05;18.17;;;1.40;99.90;;;;;;5046397;28;20053;-43
2022/12/12 09:54:01;;;;;;;30.55;17.60;;;1.40;99.90;;;;;;5052474;28;20045;-43
2022/12/12 09:56:34;;;;;;;29.85;16.80;;;1.40;99.90;;;;;;5054909;28;20615;-44
2022/12/12 09:59:03;;;;;;;29.92;17.45;;;1.40;99.90;;;;;;5052899;28;20049;-41
2022/12/12 10:01:33;;;;;;;28.88;18.08;;;1.40;99.90;;;;;;5050839;28;20913;-43
2022/12/12 10:04:05;;;;;;;31.30;18.58;;;1.40;99.90;;;;;;5052608;28;20056;-45
2022/12/12 10:06:34;;;;;;;30.45;17.73;;;1.50;99.90;;;;;;5045381;28;20107;-40
2022/12/12 10:09:06;;;;;;;31.48;17.52;;;1.50;99.90;;;;;;5050575;28;20405;-41
2022/12/12 10:11:53;;;;;;;28.67;16.60;;;1.50;99.90;;;;;;5047199;28;20095;-41
2022/12/12 10:14:25;;;;;;;31.67;17.83;;;1.60;99.90;;;;;;5045307;28;20056;-40
2022/12/12 10:16:51;;;;;;;29.10;17.35;;;1.60;99.90;;;;;;5049214;28;20048;-40
2022/12/12 10:19:20;;;;;;;28.55;18.33;;;1.60;99.90;;;;;;5049259;28;20134;-43
2022/12/12 10:21:48;;;;;;;31.73;17.98;;;1.70;99.90;;;;;;5051060;28;20515;-44
2022/12/12 10:24:23;;;;;;;28.33;17.23;;;1.70;99.90;;;;;;5051289;28;20049;-39
2022/12/12 10:26:51;;;;;;;25.80;15.30;;;1.70;99.90;;;;;;5047172;28;20048;-42
2022/12/12 10:29:19;;;;;;;24.25;15.45;;;1.70;99.90;;;;;;5051397;28;20081;-44
2022/12/12 10:31:49;;;;;;;27.05;16.35;;;1.70;99.90;;;;;;5048699;28;20049;-44
2022/12/12 10:34:26;;;;;;;27.15;17.10;;;1.70;99.90;;;;;;5051620;28;20049;-41
2022/12/12 10:37:03;;;;;;;28.58;17.45;;;1.70;99.90;;;;;;5051319;28;20816;-42
2022/12/12 10:39:32;;;;;;;29.15;17.77;;;1.70;99.90;;;;;;5047995;28;20382;-38
2022/12/12 10:42:02;;;;;;;27.33;17.00;;;1.70;99.90;;;;;;5041569;28;20061;-40
2022/12/12 10:44:46;;;;;;;29.00;17.25;;;1.80;99.90;;;;;;5050546;28;20045;-43
2022/12/12 10:47:13;;;;;;;28.83;17.55;;;1.80;99.90;;;;;;5045227;28;20103;-43
2022/12/12 10:49:40;;;;;;;26.40;16.50;;;1.80;99.90;;;;;;5052102;28;20049;-40
2022/12/12 10:52:15;;;;;;;29.50;17.88;;;1.80;99.90;;;;;;5048731;28;20068;-41
2022/12/12 10:54:44;;;;;;;27.98;16.85;;;1.80;99.90;;;;;;5051250;28;20044;-42
2022/12/12 10:57:13;;;;;;;29.50;17.02;;;1.80;99.90;;;;;;5050719;28;20083;-40
2022/12/12 10:59:42;;;;;;;31.20;17.15;;;1.90;99.90;;;;;;5048048;28;20052;-39
2022/12/12 11:02:22;;;;;;;27.30;17.27;;;1.80;99.90;;;;;;5050612;28;20055;-37
2022/12/12 11:04:49;;;;;;;28.40;17.50;;;1.80;99.90;;;;;;5050432;28;20102;-39
2022/12/12 11:07:18;;;;;;;30.27;17.88;;;1.90;99.90;;;;;;5051198;28;20073;-43
2022/12/12 11:09:45;;;;;;;28.25;16.17;;;1.90;99.90;;;;;;5050373;28;20106;-41
2022/12/12 11:12:14;;;;;;;29.60;17.75;;;1.90;99.90;;;;;;5047554;28;20509;-39
2022/12/12 11:14:44;;;;;;;28.67;17.80;;;1.90;99.90;;;;;;5049751;28;20051;-41
2022/12/12 11:17:20;;;;;;;29.10;16.92;;;1.90;99.90;;;;;;5045796;28;20438;-40
2022/12/12 11:19:47;;;;;;;32.70;18.88;;;1.90;99.90;;;;;;5051409;28;20056;-40
2022/12/12 11:22:14;;;;;;;28.33;16.95;;;1.90;99.90;;;;;;5049261;28;20551;-35
2022/12/12 11:24:43;;;;;;;30.67;17.83;;;1.90;99.90;;;;;;5050124;28;20060;-38
2022/12/12 11:27:19;;;;;;;27.58;17.70;;;2.00;99.90;;;;;;5050009;28;20106;-42
2022/12/12 11:29:47;;;;;;;34.88;17.58;;;1.90;99.90;;;;;;5049433;28;20045;-42
2022/12/12 11:32:14;;;;;;;31.42;17.77;;;1.90;99.90;;;;;;5050069;28;20053;-41
2022/12/12 11:34:44;;;;;;;31.88;18.92;;;1.90;99.90;;;;;;5048271;28;20433;-41
2022/12/12 11:37:15;;;;;;;31.73;18.67;;;1.90;99.90;;;;;;5039267;28;20128;-42
2022/12/12 11:39:43;;;;;;;30.90;17.75;;;1.90;99.90;;;;;;5047906;28;20565;-40
2022/12/12 11:42:18;;;;;;;36.65;18.25;;;1.90;99.90;;;;;;5038260;28;20049;-41
2022/12/12 11:44:48;;;;;;;32.92;19.70;;;2.00;99.90;;;;;;5045731;28;20508;-41
2022/12/12 11:47:25;;;;;;;34.13;19.65;;;2.00;99.90;;;;;;5049179;28;20084;-37
2022/12/12 11:49:52;;;;;;;32.80;19.15;;;2.00;99.90;;;;;;5051417;28;20040;-43
2022/12/12 11:52:20;;;;;;;33.95;21.00;;;1.90;99.90;;;;;;5049550;28;20060;-43
2022/12/12 11:54:47;;;;;;;41.03;22.48;;;2.00;99.90;;;;;;5046728;28;20053;-44
2022/12/12 11:57:15;;;;;;;40.42;22.33;;;2.00;99.90;;;;;;5048616;28;20459;-41
2022/12/12 12:00:04;;;;;;;37.15;22.08;;;2.00;99.90;;;;;;5049018;28;20045;-39
2022/12/12 12:03:08;;;;;;;37.63;22.58;;;2.00;99.90;;;;;;5048551;28;20123;-37
2022/12/12 12:05:41;;;;;;;38.28;21.40;;;2.00;99.90;;;;;;5032361;28;20064;-41
2022/12/12 12:08:14;;;;;;;45.17;24.02;;;2.10;99.90;;;;;;5050103;28;20061;-41
2022/12/12 12:10:53;;;;;;;43.67;24.08;;;2.10;99.90;;;;;;5048545;28;20053;-42
2022/12/12 12:13:29;;;;;;;42.38;24.08;;;2.10;99.90;;;;;;5048168;28;20554;-44
2022/12/12 12:16:00;;;;;;;35.22;21.13;;;2.20;99.90;;;;;;5048987;28;20110;-41
2022/12/12 12:18:37;;;;;;;45.47;24.83;;;2.10;99.90;;;;;;5047560;28;20057;-43
2022/12/12 12:21:18;;;;;;;42.58;22.88;;;2.20;99.90;;;;;;5039285;28;20071;-44
2022/12/12 12:23:48;;;;;;;43.60;24.00;;;2.20;99.90;;;;;;5043804;28;20115;-43
2022/12/12 12:26:17;;;;;;;39.47;22.30;;;2.20;99.90;;;;;;5045399;28;20084;-39
2022/12/12 12:29:04;;;;;;;39.60;23.02;;;2.20;99.90;;;;;;5047376;28;20080;-43
2022/12/12 12:31:37;;;;;;;36.78;21.13;;;2.20;99.90;;;;;;5046676;28;20388;-45
2022/12/12 12:34:09;;;;;;;39.25;22.45;;;2.20;99.90;;;;;;5050837;28;20091;-42
2022/12/12 12:36:41;;;;;;;35.85;20.75;;;2.20;99.90;;;;;;5047098;28;20053;-42
2022/12/12 12:39:14;;;;;;;37.72;21.92;;;2.20;99.90;;;;;;5048911;28;21927;-38
2022/12/12 12:41:50;;;;;;;38.58;21.52;;;2.20;99.90;;;;;;5042862;28;20056;-43
2022/12/12 12:44:24;;;;;;;42.10;21.50;;;2.20;99.90;;;;;;5045399;28;20057;-42
2022/12/12 12:46:56;;;;;;;35.65;21.65;;;2.20;99.90;;;;;;5048147;28;20045;-45
2022/12/12 12:49:26;;;;;;;35.08;20.75;;;2.20;99.90;;;;;;5051821;28;20064;-38
2022/12/12 12:51:54;;;;;;;40.38;22.30;;;2.20;99.90;;;;;;5041063;28;20049;-43
2022/12/12 12:54:23;;;;;;;40.00;21.40;;;2.20;99.90;;;;;;5049059;28;20049;-42
2022/12/12 12:56:51;;;;;;;41.60;21.92;;;2.10;99.90;;;;;;5053362;28;20049;-44
2022/12/12 12:59:21;;;;;;;40.63;21.48;;;2.20;99.90;;;;;;5050501;28;20060;-43
2022/12/12 13:01:49;;;;;;;37.85;21.58;;;2.20;99.90;;;;;;5052704;28;20432;-42